sensor_id;sensor_type;location;lat;lon;timestamp;P1;durP1;ratioP1;P2;durP2;ratioP2
76848;SDS011;65814;51.134;16.980;2023-06-19T00:00:33;9.40;;;7.90;;
76848;SDS011;65814;51.134;16.980;2023-06-19T00:03:21;10.70;;;9.20;;
76848;SDS011;65814;51.134;16.980;2023-06-19T00:05:49;9.60;;;8.50;;
76848;SDS011;65814;51.134;16.980;2023-06-19T00:08:17;9.10;;;8.20;;
76848;SDS011;65814;51.134;16.980;2023-06-19T00:10:45;9.50;;;8.50;;
76848;SDS011;65814;51.134;16.980;2023-06-19T00:13:13;9.70;;;8.60;;
76848;SDS011;65814;51.134;16.980;2023-06-19T00:15:42;11.30;;;10.10;;
76848;SDS011;65814;51.134;16.980;2023-06-19T00:18:10;9.60;;;8.60;;
76848;SDS011;65814;51.134;16.980;2023-06-19T00:20:41;9.80;;;8.90;;
76848;SDS011;65814;51.134;16.980;2023-06-19T00:23:12;11.40;;;9.90;;
76848;SDS011;65814;51.134;16.980;2023-06-19T00:25:44;9.60;;;8.60;;
76848;SDS011;65814;51.134;16.980;2023-06-19T00:28:15;10.30;;;9.20;;
76848;SDS011;65814;51.134;16.980;2023-06-19T00:30:47;11.20;;;9.10;;
76848;SDS011;65814;51.134;16.980;2023-06-19T00:33:15;9.70;;;8.70;;
76848;SDS011;65814;51.134;16.980;2023-06-19T00:35:43;10.70;;;8.50;;
76848;SDS011;65814;51.134;16.980;2023-06-19T00:38:11;9.70;;;8.20;;
76848;SDS011;65814;51.134;16.980;2023-06-19T00:40:40;12.30;;;9.60;;
76848;SDS011;65814;51.134;16.980;2023-06-19T00:43:07;11.40;;;9.60;;
76848;SDS011;65814;51.134;16.980;2023-06-19T00:45:35;11.60;;;9.80;;
76848;SDS011;65814;51.134;16.980;2023-06-19T00:48:04;11.70;;;10.30;;
76848;SDS011;65814;51.134;16.980;2023-06-19T00:50:32;10.50;;;9.40;;
76848;SDS011;65814;51.134;16.980;2023-06-19T00:53:00;10.20;;;9.10;;
76848;SDS011;65814;51.134;16.980;2023-06-19T00:55:31;13.00;;;11.60;;
76848;SDS011;65814;51.134;16.980;2023-06-19T00:58:00;13.20;;;10.60;;
76848;SDS011;65814;51.134;16.980;2023-06-19T01:00:28;11.30;;;10.00;;
76848;SDS011;65814;51.134;16.980;2023-06-19T01:02:56;13.60;;;10.20;;
76848;SDS011;65814;51.134;16.980;2023-06-19T01:05:26;11.50;;;10.10;;
76848;SDS011;65814;51.134;16.980;2023-06-19T01:07:58;12.20;;;10.40;;
76848;SDS011;65814;51.134;16.980;2023-06-19T01:10:30;12.00;;;10.80;;
76848;SDS011;65814;51.134;16.980;2023-06-19T01:13:12;11.40;;;10.20;;
76848;SDS011;65814;51.134;16.980;2023-06-19T01:15:43;13.40;;;9.90;;
76848;SDS011;65814;51.134;16.980;2023-06-19T01:18:11;13.40;;;11.20;;
76848;SDS011;65814;51.134;16.980;2023-06-19T01:20:40;12.10;;;10.30;;
76848;SDS011;65814;51.134;16.980;2023-06-19T01:23:08;12.70;;;11.40;;
76848;SDS011;65814;51.134;16.980;2023-06-19T01:25:37;12.30;;;11.00;;
76848;SDS011;65814;51.134;16.980;2023-06-19T01:28:06;13.20;;;11.30;;
76848;SDS011;65814;51.134;16.980;2023-06-19T01:33:09;10.90;;;9.40;;
76848;SDS011;65814;51.134;16.980;2023-06-19T01:35:54;12.30;;;10.20;;
76848;SDS011;65814;51.134;16.980;2023-06-19T01:38:24;12.70;;;11.20;;
76848;SDS011;65814;51.134;16.980;2023-06-19T01:40:54;15.00;;;11.20;;
76848;SDS011;65814;51.134;16.980;2023-06-19T01:43:23;13.40;;;10.00;;
76848;SDS011;65814;51.134;16.980;2023-06-19T01:45:52;13.00;;;11.60;;
76848;SDS011;65814;51.134;16.980;2023-06-19T01:48:20;12.20;;;10.10;;
76848;SDS011;65814;51.134;16.980;2023-06-19T01:50:48;11.40;;;10.30;;
76848;SDS011;65814;51.134;16.980;2023-06-19T01:53:18;12.80;;;11.50;;
76848;SDS011;65814;51.134;16.980;2023-06-19T01:55:46;13.60;;;11.00;;
76848;SDS011;65814;51.134;16.980;2023-06-19T01:58:14;12.10;;;10.20;;
76848;SDS011;65814;51.134;16.980;2023-06-19T02:00:44;11.40;;;10.20;;
76848;SDS011;65814;51.134;16.980;2023-06-19T02:03:12;12.20;;;9.90;;
76848;SDS011;65814;51.134;16.980;2023-06-19T02:05:40;11.90;;;10.70;;
76848;SDS011;65814;51.134;16.980;2023-06-19T02:08:08;12.60;;;10.00;;
76848;SDS011;65814;51.134;16.980;2023-06-19T02:10:36;12.90;;;10.40;;
76848;SDS011;65814;51.134;16.980;2023-06-19T02:13:04;11.60;;;10.20;;
76848;SDS011;65814;51.134;16.980;2023-06-19T02:15:32;12.90;;;11.60;;
76848;SDS011;65814;51.134;16.980;2023-06-19T02:18:00;13.40;;;12.00;;
76848;SDS011;65814;51.134;16.980;2023-06-19T02:20:28;13.20;;;11.80;;
76848;SDS011;65814;51.134;16.980;2023-06-19T02:22:57;12.80;;;11.40;;
76848;SDS011;65814;51.134;16.980;2023-06-19T02:25:25;13.90;;;11.20;;
76848;SDS011;65814;51.134;16.980;2023-06-19T02:27:55;12.30;;;11.00;;
76848;SDS011;65814;51.134;16.980;2023-06-19T02:30:23;13.70;;;11.10;;
76848;SDS011;65814;51.134;16.980;2023-06-19T02:32:53;12.00;;;10.70;;
76848;SDS011;65814;51.134;16.980;2023-06-19T02:35:23;14.30;;;11.20;;
76848;SDS011;65814;51.134;16.980;2023-06-19T02:37:51;13.00;;;11.20;;
76848;SDS011;65814;51.134;16.980;2023-06-19T02:40:22;12.40;;;10.40;;
76848;SDS011;65814;51.134;16.980;2023-06-19T02:42:52;14.80;;;10.80;;
76848;SDS011;65814;51.134;16.980;2023-06-19T02:45:23;15.50;;;11.60;;
76848;SDS011;65814;51.134;16.980;2023-06-19T02:47:51;12.80;;;11.50;;
76848;SDS011;65814;51.134;16.980;2023-06-19T02:50:20;11.60;;;10.10;;
76848;SDS011;65814;51.134;16.980;2023-06-19T02:52:48;13.50;;;11.40;;
76848;SDS011;65814;51.134;16.980;2023-06-19T02:55:16;13.40;;;11.50;;
76848;SDS011;65814;51.134;16.980;2023-06-19T02:57:44;14.60;;;13.10;;
76848;SDS011;65814;51.134;16.980;2023-06-19T03:00:13;14.10;;;11.30;;
76848;SDS011;65814;51.134;16.980;2023-06-19T03:02:41;14.40;;;11.60;;
76848;SDS011;65814;51.134;16.980;2023-06-19T03:05:12;15.20;;;12.10;;
76848;SDS011;65814;51.134;16.980;2023-06-19T03:07:42;15.60;;;12.30;;
76848;SDS011;65814;51.134;16.980;2023-06-19T03:10:10;13.00;;;11.00;;
76848;SDS011;65814;51.134;16.980;2023-06-19T03:12:38;12.80;;;11.40;;
76848;SDS011;65814;51.134;16.980;2023-06-19T03:15:06;13.00;;;11.50;;
76848;SDS011;65814;51.134;16.980;2023-06-19T03:17:34;15.80;;;11.30;;
76848;SDS011;65814;51.134;16.980;2023-06-19T03:20:02;15.20;;;12.30;;
76848;SDS011;65814;51.134;16.980;2023-06-19T03:22:33;14.70;;;11.80;;
76848;SDS011;65814;51.134;16.980;2023-06-19T03:25:01;14.20;;;12.80;;
76848;SDS011;65814;51.134;16.980;2023-06-19T03:27:29;15.00;;;12.10;;
76848;SDS011;65814;51.134;16.980;2023-06-19T03:29:57;14.60;;;12.70;;
76848;SDS011;65814;51.134;16.980;2023-06-19T03:32:25;14.20;;;12.00;;
76848;SDS011;65814;51.134;16.980;2023-06-19T03:34:55;12.60;;;10.60;;
76848;SDS011;65814;51.134;16.980;2023-06-19T03:37:23;14.10;;;11.60;;
76848;SDS011;65814;51.134;16.980;2023-06-19T03:39:51;14.90;;;12.50;;
76848;SDS011;65814;51.134;16.980;2023-06-19T03:42:19;15.60;;;12.10;;
76848;SDS011;65814;51.134;16.980;2023-06-19T03:44:47;15.20;;;12.20;;
76848;SDS011;65814;51.134;16.980;2023-06-19T03:47:15;14.90;;;12.00;;
76848;SDS011;65814;51.134;16.980;2023-06-19T03:49:44;15.20;;;12.40;;
76848;SDS011;65814;51.134;16.980;2023-06-19T03:52:11;16.20;;;12.60;;
76848;SDS011;65814;51.134;16.980;2023-06-19T03:54:39;15.60;;;11.90;;
76848;SDS011;65814;51.134;16.980;2023-06-19T03:57:07;16.80;;;12.70;;
76848;SDS011;65814;51.134;16.980;2023-06-19T03:59:36;14.80;;;12.20;;
76848;SDS011;65814;51.134;16.980;2023-06-19T04:02:04;18.10;;;13.70;;
76848;SDS011;65814;51.134;16.980;2023-06-19T04:04:32;15.80;;;13.40;;
76848;SDS011;65814;51.134;16.980;2023-06-19T04:07:00;15.20;;;13.20;;
76848;SDS011;65814;51.134;16.980;2023-06-19T04:09:28;16.50;;;14.00;;
76848;SDS011;65814;51.134;16.980;2023-06-19T04:11:56;16.50;;;13.90;;
76848;SDS011;65814;51.134;16.980;2023-06-19T04:14:23;15.40;;;12.80;;
76848;SDS011;65814;51.134;16.980;2023-06-19T04:16:51;16.20;;;13.50;;
76848;SDS011;65814;51.134;16.980;2023-06-19T04:19:19;14.40;;;12.80;;
76848;SDS011;65814;51.134;16.980;2023-06-19T04:21:47;18.30;;;12.60;;
76848;SDS011;65814;51.134;16.980;2023-06-19T04:24:15;17.20;;;13.10;;
76848;SDS011;65814;51.134;16.980;2023-06-19T04:26:43;15.30;;;13.50;;
76848;SDS011;65814;51.134;16.980;2023-06-19T04:29:11;17.40;;;12.50;;
76848;SDS011;65814;51.134;16.980;2023-06-19T04:31:44;14.50;;;12.70;;
76848;SDS011;65814;51.134;16.980;2023-06-19T04:34:17;16.80;;;12.80;;
76848;SDS011;65814;51.134;16.980;2023-06-19T04:36:48;15.70;;;13.30;;
76848;SDS011;65814;51.134;16.980;2023-06-19T04:39:16;20.90;;;13.80;;
76848;SDS011;65814;51.134;16.980;2023-06-19T04:41:44;16.40;;;13.70;;
76848;SDS011;65814;51.134;16.980;2023-06-19T04:44:12;16.20;;;13.10;;
76848;SDS011;65814;51.134;16.980;2023-06-19T04:46:40;15.80;;;12.70;;
76848;SDS011;65814;51.134;16.980;2023-06-19T04:49:08;14.80;;;12.20;;
76848;SDS011;65814;51.134;16.980;2023-06-19T04:51:36;15.40;;;13.70;;
76848;SDS011;65814;51.134;16.980;2023-06-19T04:54:04;15.60;;;13.60;;
76848;SDS011;65814;51.134;16.980;2023-06-19T04:56:32;17.10;;;14.50;;
76848;SDS011;65814;51.134;16.980;2023-06-19T04:59:00;15.20;;;13.40;;
76848;SDS011;65814;51.134;16.980;2023-06-19T05:01:29;18.40;;;13.00;;
76848;SDS011;65814;51.134;16.980;2023-06-19T05:03:58;16.90;;;13.10;;
76848;SDS011;65814;51.134;16.980;2023-06-19T05:06:27;16.30;;;13.00;;
76848;SDS011;65814;51.134;16.980;2023-06-19T05:08:55;15.20;;;13.30;;
76848;SDS011;65814;51.134;16.980;2023-06-19T05:11:23;14.30;;;12.90;;
76848;SDS011;65814;51.134;16.980;2023-06-19T05:13:50;14.50;;;12.70;;
76848;SDS011;65814;51.134;16.980;2023-06-19T05:16:18;16.10;;;13.40;;
76848;SDS011;65814;51.134;16.980;2023-06-19T05:18:47;16.60;;;14.30;;
76848;SDS011;65814;51.134;16.980;2023-06-19T05:21:15;15.20;;;13.00;;
76848;SDS011;65814;51.134;16.980;2023-06-19T05:23:43;16.40;;;13.30;;
76848;SDS011;65814;51.134;16.980;2023-06-19T05:26:11;22.30;;;15.70;;
76848;SDS011;65814;51.134;16.980;2023-06-19T05:28:39;15.90;;;13.90;;
76848;SDS011;65814;51.134;16.980;2023-06-19T05:31:07;16.00;;;13.40;;
76848;SDS011;65814;51.134;16.980;2023-06-19T05:33:35;15.50;;;13.80;;
76848;SDS011;65814;51.134;16.980;2023-06-19T05:36:03;14.60;;;13.10;;
76848;SDS011;65814;51.134;16.980;2023-06-19T05:38:31;20.60;;;13.80;;
76848;SDS011;65814;51.134;16.980;2023-06-19T05:40:59;18.70;;;13.40;;
76848;SDS011;65814;51.134;16.980;2023-06-19T05:43:27;17.40;;;14.80;;
76848;SDS011;65814;51.134;16.980;2023-06-19T05:45:55;22.40;;;15.40;;
76848;SDS011;65814;51.134;16.980;2023-06-19T05:48:24;15.30;;;12.90;;
76848;SDS011;65814;51.134;16.980;2023-06-19T05:50:52;16.80;;;15.10;;
76848;SDS011;65814;51.134;16.980;2023-06-19T05:53:20;17.30;;;13.70;;
76848;SDS011;65814;51.134;16.980;2023-06-19T05:55:48;14.90;;;13.30;;
76848;SDS011;65814;51.134;16.980;2023-06-19T05:58:16;15.50;;;12.90;;
76848;SDS011;65814;51.134;16.980;2023-06-19T06:00:47;15.60;;;13.00;;
76848;SDS011;65814;51.134;16.980;2023-06-19T06:03:15;13.50;;;12.10;;
76848;SDS011;65814;51.134;16.980;2023-06-19T06:05:44;16.40;;;13.30;;
76848;SDS011;65814;51.134;16.980;2023-06-19T06:10:44;17.10;;;11.70;;
76848;SDS011;65814;51.134;16.980;2023-06-19T06:13:12;13.60;;;10.50;;
76848;SDS011;65814;51.134;16.980;2023-06-19T06:15:40;12.20;;;11.00;;
76848;SDS011;65814;51.134;16.980;2023-06-19T06:18:07;14.80;;;11.40;;
76848;SDS011;65814;51.134;16.980;2023-06-19T06:20:36;11.40;;;9.80;;
76848;SDS011;65814;51.134;16.980;2023-06-19T06:23:03;15.10;;;11.00;;
76848;SDS011;65814;51.134;16.980;2023-06-19T06:25:31;14.00;;;11.00;;
76848;SDS011;65814;51.134;16.980;2023-06-19T06:27:59;13.30;;;12.10;;
76848;SDS011;65814;51.134;16.980;2023-06-19T06:30:27;12.60;;;11.30;;
76848;SDS011;65814;51.134;16.980;2023-06-19T06:32:56;12.40;;;11.10;;
76848;SDS011;65814;51.134;16.980;2023-06-19T06:35:24;12.60;;;11.20;;
76848;SDS011;65814;51.134;16.980;2023-06-19T06:37:52;12.10;;;11.00;;
76848;SDS011;65814;51.134;16.980;2023-06-19T06:40:19;13.60;;;12.20;;
76848;SDS011;65814;51.134;16.980;2023-06-19T06:42:49;12.70;;;11.40;;
76848;SDS011;65814;51.134;16.980;2023-06-19T06:45:17;13.20;;;9.60;;
76848;SDS011;65814;51.134;16.980;2023-06-19T06:47:45;12.80;;;11.00;;
76848;SDS011;65814;51.134;16.980;2023-06-19T06:50:13;15.40;;;12.40;;
76848;SDS011;65814;51.134;16.980;2023-06-19T06:52:41;12.90;;;11.70;;
76848;SDS011;65814;51.134;16.980;2023-06-19T06:55:09;11.40;;;9.80;;
76848;SDS011;65814;51.134;16.980;2023-06-19T06:57:37;14.00;;;11.80;;
76848;SDS011;65814;51.134;16.980;2023-06-19T07:00:05;13.70;;;10.80;;
76848;SDS011;65814;51.134;16.980;2023-06-19T07:02:37;11.40;;;9.10;;
76848;SDS011;65814;51.134;16.980;2023-06-19T07:05:06;12.50;;;11.20;;
76848;SDS011;65814;51.134;16.980;2023-06-19T07:07:35;15.40;;;10.50;;
76848;SDS011;65814;51.134;16.980;2023-06-19T07:10:02;13.20;;;10.80;;
76848;SDS011;65814;51.134;16.980;2023-06-19T07:12:31;13.00;;;10.70;;
76848;SDS011;65814;51.134;16.980;2023-06-19T07:14:59;19.20;;;10.80;;
76848;SDS011;65814;51.134;16.980;2023-06-19T07:17:27;13.50;;;9.70;;
76848;SDS011;65814;51.134;16.980;2023-06-19T07:19:54;14.30;;;9.90;;
76848;SDS011;65814;51.134;16.980;2023-06-19T07:22:22;14.80;;;11.90;;
76848;SDS011;65814;51.134;16.980;2023-06-19T07:24:50;21.00;;;15.90;;
76848;SDS011;65814;51.134;16.980;2023-06-19T07:27:18;19.00;;;15.60;;
76848;SDS011;65814;51.134;16.980;2023-06-19T07:29:46;16.80;;;14.20;;
76848;SDS011;65814;51.134;16.980;2023-06-19T07:32:14;18.50;;;15.30;;
76848;SDS011;65814;51.134;16.980;2023-06-19T07:34:42;16.40;;;11.50;;
76848;SDS011;65814;51.134;16.980;2023-06-19T07:37:11;11.90;;;10.60;;
76848;SDS011;65814;51.134;16.980;2023-06-19T07:39:45;13.60;;;11.60;;
76848;SDS011;65814;51.134;16.980;2023-06-19T07:42:14;13.10;;;10.40;;
76848;SDS011;65814;51.134;16.980;2023-06-19T07:44:42;15.10;;;11.00;;
76848;SDS011;65814;51.134;16.980;2023-06-19T07:47:10;12.70;;;10.10;;
76848;SDS011;65814;51.134;16.980;2023-06-19T07:49:38;11.80;;;8.70;;
76848;SDS011;65814;51.134;16.980;2023-06-19T07:52:07;11.90;;;10.10;;
76848;SDS011;65814;51.134;16.980;2023-06-19T07:54:47;11.30;;;9.40;;
76848;SDS011;65814;51.134;16.980;2023-06-19T07:57:19;15.20;;;10.20;;
76848;SDS011;65814;51.134;16.980;2023-06-19T07:59:48;11.40;;;9.50;;
76848;SDS011;65814;51.134;16.980;2023-06-19T08:02:16;13.60;;;8.90;;
76848;SDS011;65814;51.134;16.980;2023-06-19T08:04:45;9.00;;;8.10;;
76848;SDS011;65814;51.134;16.980;2023-06-19T08:07:14;10.70;;;9.20;;
76848;SDS011;65814;51.134;16.980;2023-06-19T08:09:41;16.80;;;9.40;;
76848;SDS011;65814;51.134;16.980;2023-06-19T08:12:09;11.80;;;9.20;;
76848;SDS011;65814;51.134;16.980;2023-06-19T08:14:37;11.90;;;9.10;;
76848;SDS011;65814;51.134;16.980;2023-06-19T08:17:06;12.10;;;10.10;;
76848;SDS011;65814;51.134;16.980;2023-06-19T08:19:34;10.20;;;8.90;;
76848;SDS011;65814;51.134;16.980;2023-06-19T08:22:02;10.50;;;8.10;;
76848;SDS011;65814;51.134;16.980;2023-06-19T08:24:30;16.00;;;9.50;;
76848;SDS011;65814;51.134;16.980;2023-06-19T08:26:58;14.60;;;8.30;;
76848;SDS011;65814;51.134;16.980;2023-06-19T08:29:26;13.80;;;8.80;;
76848;SDS011;65814;51.134;16.980;2023-06-19T08:31:54;10.50;;;7.90;;
76848;SDS011;65814;51.134;16.980;2023-06-19T08:34:22;10.50;;;8.50;;
76848;SDS011;65814;51.134;16.980;2023-06-19T08:36:50;12.00;;;8.40;;
76848;SDS011;65814;51.134;16.980;2023-06-19T08:39:18;10.20;;;9.20;;
76848;SDS011;65814;51.134;16.980;2023-06-19T08:41:48;15.20;;;8.80;;
76848;SDS011;65814;51.134;16.980;2023-06-19T08:44:15;10.20;;;9.00;;
76848;SDS011;65814;51.134;16.980;2023-06-19T08:46:43;11.20;;;8.10;;
76848;SDS011;65814;51.134;16.980;2023-06-19T08:49:11;10.20;;;8.50;;
76848;SDS011;65814;51.134;16.980;2023-06-19T08:51:40;9.60;;;7.80;;
76848;SDS011;65814;51.134;16.980;2023-06-19T08:54:08;10.70;;;8.30;;
76848;SDS011;65814;51.134;16.980;2023-06-19T08:56:36;12.00;;;7.70;;
76848;SDS011;65814;51.134;16.980;2023-06-19T08:59:11;8.70;;;6.60;;
76848;SDS011;65814;51.134;16.980;2023-06-19T09:01:46;12.20;;;8.50;;
76848;SDS011;65814;51.134;16.980;2023-06-19T09:04:20;9.50;;;7.60;;
76848;SDS011;65814;51.134;16.980;2023-06-19T09:06:56;10.00;;;7.40;;
76848;SDS011;65814;51.134;16.980;2023-06-19T09:09:26;10.20;;;8.30;;
76848;SDS011;65814;51.134;16.980;2023-06-19T09:12:01;11.10;;;7.60;;
76848;SDS011;65814;51.134;16.980;2023-06-19T09:14:40;6.90;;;6.20;;
76848;SDS011;65814;51.134;16.980;2023-06-19T09:17:19;7.10;;;6.40;;
76848;SDS011;65814;51.134;16.980;2023-06-19T09:19:52;8.50;;;6.50;;
76848;SDS011;65814;51.134;16.980;2023-06-19T09:22:21;10.50;;;6.70;;
76848;SDS011;65814;51.134;16.980;2023-06-19T09:24:49;7.40;;;6.70;;
76848;SDS011;65814;51.134;16.980;2023-06-19T09:27:18;8.50;;;7.00;;
76848;SDS011;65814;51.134;16.980;2023-06-19T09:29:48;11.50;;;8.40;;
76848;SDS011;65814;51.134;16.980;2023-06-19T09:34:49;6.90;;;6.20;;
76848;SDS011;65814;51.134;16.980;2023-06-19T09:37:22;7.60;;;6.50;;
76848;SDS011;65814;51.134;16.980;2023-06-19T09:39:53;8.50;;;6.10;;
76848;SDS011;65814;51.134;16.980;2023-06-19T09:42:32;7.10;;;6.40;;
76848;SDS011;65814;51.134;16.980;2023-06-19T09:45:05;8.70;;;7.10;;
76848;SDS011;65814;51.134;16.980;2023-06-19T09:47:36;7.70;;;6.70;;
76848;SDS011;65814;51.134;16.980;2023-06-19T09:50:14;7.20;;;6.50;;
76848;SDS011;65814;51.134;16.980;2023-06-19T09:52:43;6.60;;;6.00;;
76848;SDS011;65814;51.134;16.980;2023-06-19T09:55:12;6.60;;;5.90;;
76848;SDS011;65814;51.134;16.980;2023-06-19T09:57:41;7.30;;;6.20;;
76848;SDS011;65814;51.134;16.980;2023-06-19T10:00:12;7.50;;;6.70;;
76848;SDS011;65814;51.134;16.980;2023-06-19T10:05:13;6.00;;;5.50;;
76848;SDS011;65814;51.134;16.980;2023-06-19T10:07:43;7.60;;;6.50;;
76848;SDS011;65814;51.134;16.980;2023-06-19T10:10:25;6.60;;;6.00;;
76848;SDS011;65814;51.134;16.980;2023-06-19T10:13:00;6.30;;;5.70;;
76848;SDS011;65814;51.134;16.980;2023-06-19T10:15:43;7.20;;;5.60;;
76848;SDS011;65814;51.134;16.980;2023-06-19T10:18:15;6.70;;;6.10;;
76848;SDS011;65814;51.134;16.980;2023-06-19T10:20:45;6.10;;;5.60;;
76848;SDS011;65814;51.134;16.980;2023-06-19T10:23:20;8.20;;;6.10;;
76848;SDS011;65814;51.134;16.980;2023-06-19T10:28:22;6.10;;;5.60;;
76848;SDS011;65814;51.134;16.980;2023-06-19T10:30:54;6.80;;;5.80;;
76848;SDS011;65814;51.134;16.980;2023-06-19T10:33:35;8.00;;;6.60;;
76848;SDS011;65814;51.134;16.980;2023-06-19T10:36:17;6.30;;;5.70;;
76848;SDS011;65814;51.134;16.980;2023-06-19T10:38:46;6.30;;;5.70;;
76848;SDS011;65814;51.134;16.980;2023-06-19T10:41:21;6.60;;;6.00;;
76848;SDS011;65814;51.134;16.980;2023-06-19T10:46:28;7.80;;;5.70;;
76848;SDS011;65814;51.134;16.980;2023-06-19T10:48:58;5.90;;;5.20;;
76848;SDS011;65814;51.134;16.980;2023-06-19T10:51:38;7.10;;;5.90;;
76848;SDS011;65814;51.134;16.980;2023-06-19T10:54:07;7.00;;;5.70;;
76848;SDS011;65814;51.134;16.980;2023-06-19T10:56:35;5.70;;;5.20;;
76848;SDS011;65814;51.134;16.980;2023-06-19T10:59:05;5.90;;;5.30;;
76848;SDS011;65814;51.134;16.980;2023-06-19T11:01:41;5.40;;;4.90;;
76848;SDS011;65814;51.134;16.980;2023-06-19T11:04:11;6.50;;;5.70;;
76848;SDS011;65814;51.134;16.980;2023-06-19T11:06:40;5.90;;;5.30;;
76848;SDS011;65814;51.134;16.980;2023-06-19T11:09:09;5.20;;;4.70;;
76848;SDS011;65814;51.134;16.980;2023-06-19T11:11:45;5.80;;;5.30;;
76848;SDS011;65814;51.134;16.980;2023-06-19T11:14:17;6.60;;;5.90;;
76848;SDS011;65814;51.134;16.980;2023-06-19T11:16:45;5.60;;;5.10;;
76848;SDS011;65814;51.134;16.980;2023-06-19T11:19:21;6.90;;;4.90;;
76848;SDS011;65814;51.134;16.980;2023-06-19T11:21:51;6.40;;;5.80;;
76848;SDS011;65814;51.134;16.980;2023-06-19T11:24:19;5.20;;;4.60;;
76848;SDS011;65814;51.134;16.980;2023-06-19T11:26:49;6.20;;;5.70;;
76848;SDS011;65814;51.134;16.980;2023-06-19T11:29:23;5.70;;;5.20;;
76848;SDS011;65814;51.134;16.980;2023-06-19T11:34:34;6.40;;;5.40;;
76848;SDS011;65814;51.134;16.980;2023-06-19T11:39:51;6.70;;;5.60;;
76848;SDS011;65814;51.134;16.980;2023-06-19T11:42:20;6.00;;;5.50;;
76848;SDS011;65814;51.134;16.980;2023-06-19T11:45:01;5.00;;;4.60;;
76848;SDS011;65814;51.134;16.980;2023-06-19T11:47:33;7.10;;;5.30;;
76848;SDS011;65814;51.134;16.980;2023-06-19T11:50:03;6.30;;;5.70;;
76848;SDS011;65814;51.134;16.980;2023-06-19T11:52:32;6.10;;;5.50;;
76848;SDS011;65814;51.134;16.980;2023-06-19T11:55:00;6.40;;;5.80;;
76848;SDS011;65814;51.134;16.980;2023-06-19T11:57:28;5.90;;;5.40;;
76848;SDS011;65814;51.134;16.980;2023-06-19T11:59:56;6.00;;;5.40;;
76848;SDS011;65814;51.134;16.980;2023-06-19T12:02:24;6.80;;;5.90;;
76848;SDS011;65814;51.134;16.980;2023-06-19T12:04:52;6.70;;;6.10;;
76848;SDS011;65814;51.134;16.980;2023-06-19T12:07:21;6.50;;;5.90;;
76848;SDS011;65814;51.134;16.980;2023-06-19T12:09:49;6.80;;;5.50;;
76848;SDS011;65814;51.134;16.980;2023-06-19T12:12:17;6.10;;;5.50;;
76848;SDS011;65814;51.134;16.980;2023-06-19T12:14:45;7.00;;;6.30;;
76848;SDS011;65814;51.134;16.980;2023-06-19T12:17:13;6.80;;;6.10;;
76848;SDS011;65814;51.134;16.980;2023-06-19T12:19:41;7.90;;;4.80;;
76848;SDS011;65814;51.134;16.980;2023-06-19T12:22:08;6.60;;;6.00;;
76848;SDS011;65814;51.134;16.980;2023-06-19T12:24:36;6.00;;;5.40;;
76848;SDS011;65814;51.134;16.980;2023-06-19T12:27:04;6.40;;;5.70;;
76848;SDS011;65814;51.134;16.980;2023-06-19T12:29:32;5.10;;;4.60;;
76848;SDS011;65814;51.134;16.980;2023-06-19T12:32:01;7.30;;;6.40;;
76848;SDS011;65814;51.134;16.980;2023-06-19T12:34:32;6.60;;;6.00;;
76848;SDS011;65814;51.134;16.980;2023-06-19T12:37:00;6.50;;;5.80;;
76848;SDS011;65814;51.134;16.980;2023-06-19T12:39:28;9.30;;;6.60;;
76848;SDS011;65814;51.134;16.980;2023-06-19T12:41:56;6.10;;;5.50;;
76848;SDS011;65814;51.134;16.980;2023-06-19T12:44:24;9.80;;;7.40;;
76848;SDS011;65814;51.134;16.980;2023-06-19T12:46:52;6.80;;;6.10;;
76848;SDS011;65814;51.134;16.980;2023-06-19T12:49:21;6.40;;;5.80;;
76848;SDS011;65814;51.134;16.980;2023-06-19T12:51:49;5.80;;;5.30;;
76848;SDS011;65814;51.134;16.980;2023-06-19T12:54:19;6.40;;;5.80;;
76848;SDS011;65814;51.134;16.980;2023-06-19T12:56:48;6.70;;;6.10;;
76848;SDS011;65814;51.134;16.980;2023-06-19T12:59:16;5.30;;;4.80;;
76848;SDS011;65814;51.134;16.980;2023-06-19T13:01:44;6.30;;;5.60;;
76848;SDS011;65814;51.134;16.980;2023-06-19T13:04:12;6.90;;;6.00;;
76848;SDS011;65814;51.134;16.980;2023-06-19T13:06:41;5.90;;;5.30;;
76848;SDS011;65814;51.134;16.980;2023-06-19T13:09:09;6.70;;;5.80;;
76848;SDS011;65814;51.134;16.980;2023-06-19T13:11:37;7.30;;;6.60;;
76848;SDS011;65814;51.134;16.980;2023-06-19T13:14:05;6.70;;;6.00;;
76848;SDS011;65814;51.134;16.980;2023-06-19T13:16:33;7.20;;;6.50;;
76848;SDS011;65814;51.134;16.980;2023-06-19T13:19:13;8.50;;;7.10;;
76848;SDS011;65814;51.134;16.980;2023-06-19T13:21:42;9.30;;;6.90;;
76848;SDS011;65814;51.134;16.980;2023-06-19T13:24:10;6.80;;;6.00;;
76848;SDS011;65814;51.134;16.980;2023-06-19T13:26:39;8.30;;;5.90;;
76848;SDS011;65814;51.134;16.980;2023-06-19T13:29:07;7.60;;;5.80;;
76848;SDS011;65814;51.134;16.980;2023-06-19T13:31:35;10.30;;;6.10;;
76848;SDS011;65814;51.134;16.980;2023-06-19T13:34:03;8.80;;;5.90;;
76848;SDS011;65814;51.134;16.980;2023-06-19T13:36:31;6.40;;;5.80;;
76848;SDS011;65814;51.134;16.980;2023-06-19T13:39:00;8.10;;;7.20;;
76848;SDS011;65814;51.134;16.980;2023-06-19T13:41:28;8.50;;;6.80;;
76848;SDS011;65814;51.134;16.980;2023-06-19T13:43:58;9.10;;;7.40;;
76848;SDS011;65814;51.134;16.980;2023-06-19T13:46:27;8.30;;;6.40;;
76848;SDS011;65814;51.134;16.980;2023-06-19T13:48:57;7.10;;;5.70;;
76848;SDS011;65814;51.134;16.980;2023-06-19T13:51:25;7.30;;;6.50;;
76848;SDS011;65814;51.134;16.980;2023-06-19T13:53:53;7.10;;;6.40;;
76848;SDS011;65814;51.134;16.980;2023-06-19T13:56:22;8.60;;;5.90;;
76848;SDS011;65814;51.134;16.980;2023-06-19T13:58:51;7.60;;;6.90;;
76848;SDS011;65814;51.134;16.980;2023-06-19T14:01:18;9.30;;;7.50;;
76848;SDS011;65814;51.134;16.980;2023-06-19T14:03:46;7.10;;;6.40;;
76848;SDS011;65814;51.134;16.980;2023-06-19T14:06:15;11.00;;;6.20;;
76848;SDS011;65814;51.134;16.980;2023-06-19T14:08:43;7.30;;;6.70;;
76848;SDS011;65814;51.134;16.980;2023-06-19T14:11:18;8.20;;;6.90;;
76848;SDS011;65814;51.134;16.980;2023-06-19T14:13:46;7.60;;;6.40;;
76848;SDS011;65814;51.134;16.980;2023-06-19T14:16:14;8.20;;;6.60;;
76848;SDS011;65814;51.134;16.980;2023-06-19T14:18:42;8.00;;;7.20;;
76848;SDS011;65814;51.134;16.980;2023-06-19T14:21:09;6.80;;;5.90;;
76848;SDS011;65814;51.134;16.980;2023-06-19T14:23:38;7.40;;;6.60;;
76848;SDS011;65814;51.134;16.980;2023-06-19T14:26:10;8.00;;;7.20;;
76848;SDS011;65814;51.134;16.980;2023-06-19T14:28:39;9.00;;;6.50;;
76848;SDS011;65814;51.134;16.980;2023-06-19T14:31:07;7.50;;;6.80;;
76848;SDS011;65814;51.134;16.980;2023-06-19T14:33:35;7.70;;;6.60;;
76848;SDS011;65814;51.134;16.980;2023-06-19T14:36:04;7.60;;;6.80;;
76848;SDS011;65814;51.134;16.980;2023-06-19T14:38:33;8.70;;;7.70;;
76848;SDS011;65814;51.134;16.980;2023-06-19T14:41:02;7.50;;;5.20;;
76848;SDS011;65814;51.134;16.980;2023-06-19T14:43:30;8.50;;;7.20;;
76848;SDS011;65814;51.134;16.980;2023-06-19T14:46:01;9.00;;;6.30;;
76848;SDS011;65814;51.134;16.980;2023-06-19T14:48:29;7.10;;;6.40;;
76848;SDS011;65814;51.134;16.980;2023-06-19T14:50:58;6.50;;;5.90;;
76848;SDS011;65814;51.134;16.980;2023-06-19T14:53:26;9.10;;;6.90;;